sensor_id;sensor_type;location;lat;lon;timestamp;P1;durP1;ratioP1;P2;durP2;ratioP2
57303;SDS011;43150;50.986;18.208;2022-11-20T00:07:05;50.40;;;30.60;;
57303;SDS011;43150;50.986;18.208;2022-11-20T00:16:46;59.80;;;28.30;;
57303;SDS011;43150;50.986;18.208;2022-11-20T00:26:30;37.60;;;23.70;;
57303;SDS011;43150;50.986;18.208;2022-11-20T00:36:14;46.40;;;26.80;;
57303;SDS011;43150;50.986;18.208;2022-11-20T00:45:59;54.70;;;27.40;;
57303;SDS011;43150;50.986;18.208;2022-11-20T00:55:51;51.60;;;28.90;;
57303;SDS011;43150;50.986;18.208;2022-11-20T01:05:35;37.30;;;21.30;;
57303;SDS011;43150;50.986;18.208;2022-11-20T01:15:37;53.80;;;27.10;;
57303;SDS011;43150;50.986;18.208;2022-11-20T01:25:18;49.40;;;25.10;;
57303;SDS011;43150;50.986;18.208;2022-11-20T01:35:00;60.80;;;32.30;;
57303;SDS011;43150;50.986;18.208;2022-11-20T01:45:00;42.50;;;25.10;;
57303;SDS011;43150;50.986;18.208;2022-11-20T01:54:54;47.50;;;27.10;;
57303;SDS011;43150;50.986;18.208;2022-11-20T02:04:39;31.80;;;19.00;;
57303;SDS011;43150;50.986;18.208;2022-11-20T02:14:21;41.20;;;26.70;;
57303;SDS011;43150;50.986;18.208;2022-11-20T02:33:54;36.60;;;20.20;;
57303;SDS011;43150;50.986;18.208;2022-11-20T02:50:52;33.30;;;21.50;;
57303;SDS011;43150;50.986;18.208;2022-11-20T03:00:33;27.80;;;18.30;;
57303;SDS011;43150;50.986;18.208;2022-11-20T03:10:17;38.00;;;16.00;;
57303;SDS011;43150;50.986;18.208;2022-11-20T03:19:58;40.40;;;25.20;;
57303;SDS011;43150;50.986;18.208;2022-11-20T03:29:43;47.30;;;23.90;;
57303;SDS011;43150;50.986;18.208;2022-11-20T03:39:25;49.30;;;26.00;;
57303;SDS011;43150;50.986;18.208;2022-11-20T03:49:08;56.10;;;24.70;;
57303;SDS011;43150;50.986;18.208;2022-11-20T03:58:50;53.50;;;28.30;;
57303;SDS011;43150;50.986;18.208;2022-11-20T04:08:32;74.70;;;26.10;;
57303;SDS011;43150;50.986;18.208;2022-11-20T04:18:15;72.00;;;29.60;;
57303;SDS011;43150;50.986;18.208;2022-11-20T04:27:59;51.30;;;30.30;;
57303;SDS011;43150;50.986;18.208;2022-11-20T04:37:41;76.70;;;28.60;;
57303;SDS011;43150;50.986;18.208;2022-11-20T04:47:22;56.50;;;30.30;;
57303;SDS011;43150;50.986;18.208;2022-11-20T05:04:22;82.90;;;36.50;;
57303;SDS011;43150;50.986;18.208;2022-11-20T05:14:04;43.10;;;28.90;;
57303;SDS011;43150;50.986;18.208;2022-11-20T05:31:07;89.00;;;36.90;;
57303;SDS011;43150;50.986;18.208;2022-11-20T05:40:49;50.30;;;27.40;;
57303;SDS011;43150;50.986;18.208;2022-11-20T05:50:30;47.40;;;22.20;;
57303;SDS011;43150;50.986;18.208;2022-11-20T06:00:12;48.30;;;28.20;;
57303;SDS011;43150;50.986;18.208;2022-11-20T06:09:56;82.90;;;36.20;;
57303;SDS011;43150;50.986;18.208;2022-11-20T06:19:38;122.50;;;40.40;;
57303;SDS011;43150;50.986;18.208;2022-11-20T06:29:19;101.20;;;46.00;;
57303;SDS011;43150;50.986;18.208;2022-11-20T06:39:01;88.40;;;42.90;;
57303;SDS011;43150;50.986;18.208;2022-11-20T06:58:50;81.80;;;40.00;;
57303;SDS011;43150;50.986;18.208;2022-11-20T07:08:33;68.70;;;44.30;;
57303;SDS011;43150;50.986;18.208;2022-11-20T07:18:17;86.70;;;45.70;;
57303;SDS011;43150;50.986;18.208;2022-11-20T07:27:59;62.90;;;46.40;;
57303;SDS011;43150;50.986;18.208;2022-11-20T07:37:41;84.70;;;56.00;;
57303;SDS011;43150;50.986;18.208;2022-11-20T07:47:23;81.00;;;58.70;;
57303;SDS011;43150;50.986;18.208;2022-11-20T08:04:26;97.30;;;71.30;;
57303;SDS011;43150;50.986;18.208;2022-11-20T08:14:29;67.40;;;55.90;;
57303;SDS011;43150;50.986;18.208;2022-11-20T08:31:28;62.20;;;54.20;;
57303;SDS011;43150;50.986;18.208;2022-11-20T08:41:10;81.40;;;61.90;;
57303;SDS011;43150;50.986;18.208;2022-11-20T08:51:13;59.80;;;45.90;;
57303;SDS011;43150;50.986;18.208;2022-11-20T09:00:55;86.20;;;64.20;;
57303;SDS011;43150;50.986;18.208;2022-11-20T09:10:36;70.40;;;58.40;;
57303;SDS011;43150;50.986;18.208;2022-11-20T09:20:20;58.90;;;48.20;;
57303;SDS011;43150;50.986;18.208;2022-11-20T09:30:02;50.60;;;45.20;;
57303;SDS011;43150;50.986;18.208;2022-11-20T09:39:46;51.00;;;45.70;;
57303;SDS011;43150;50.986;18.208;2022-11-20T10:09:29;32.10;;;29.10;;
57303;SDS011;43150;50.986;18.208;2022-11-20T10:26:38;23.10;;;20.70;;
57303;SDS011;43150;50.986;18.208;2022-11-20T10:36:28;30.80;;;27.70;;
57303;SDS011;43150;50.986;18.208;2022-11-20T10:46:20;32.90;;;29.60;;
57303;SDS011;43150;50.986;18.208;2022-11-20T10:56:09;27.90;;;24.90;;
57303;SDS011;43150;50.986;18.208;2022-11-20T11:06:10;17.10;;;15.30;;
57303;SDS011;43150;50.986;18.208;2022-11-20T11:15:56;27.60;;;24.70;;
57303;SDS011;43150;50.986;18.208;2022-11-20T11:25:38;26.30;;;23.80;;
57303;SDS011;43150;50.986;18.208;2022-11-20T11:35:23;29.90;;;27.10;;
57303;SDS011;43150;50.986;18.208;2022-11-20T11:45:07;28.50;;;25.50;;
57303;SDS011;43150;50.986;18.208;2022-11-20T12:39:02;39.60;;;31.60;;
57303;SDS011;43150;50.986;18.208;2022-11-20T12:49:34;19.40;;;17.30;;
57303;SDS011;43150;50.986;18.208;2022-11-20T13:26:18;30.70;;;26.90;;
57303;SDS011;43150;50.986;18.208;2022-11-20T13:53:12;40.50;;;33.60;;
57303;SDS011;43150;50.986;18.208;2022-11-20T14:12:40;52.40;;;45.90;;
57303;SDS011;43150;50.986;18.208;2022-11-20T14:22:22;87.60;;;42.80;;
57303;SDS011;43150;50.986;18.208;2022-11-20T14:32:08;76.30;;;46.60;;
57303;SDS011;43150;50.986;18.208;2022-11-20T14:41:53;103.10;;;48.90;;
57303;SDS011;43150;50.986;18.208;2022-11-20T14:51:36;58.70;;;39.70;;
57303;SDS011;43150;50.986;18.208;2022-11-20T15:01:25;108.80;;;49.90;;
57303;SDS011;43150;50.986;18.208;2022-11-20T15:28:18;166.90;;;71.10;;
57303;SDS011;43150;50.986;18.208;2022-11-20T15:38:06;84.90;;;47.40;;
57303;SDS011;43150;50.986;18.208;2022-11-20T15:55:10;61.40;;;34.00;;
57303;SDS011;43150;50.986;18.208;2022-11-20T16:04:52;100.10;;;43.70;;
57303;SDS011;43150;50.986;18.208;2022-11-20T16:14:54;146.60;;;66.50;;
57303;SDS011;43150;50.986;18.208;2022-11-20T16:25:05;195.40;;;80.00;;
57303;SDS011;43150;50.986;18.208;2022-11-20T16:34:49;79.60;;;42.70;;
57303;SDS011;43150;50.986;18.208;2022-11-20T16:44:31;86.50;;;36.50;;
57303;SDS011;43150;50.986;18.208;2022-11-20T16:54:14;89.10;;;38.00;;
57303;SDS011;43150;50.986;18.208;2022-11-20T17:04:01;74.80;;;39.90;;
57303;SDS011;43150;50.986;18.208;2022-11-20T17:28:22;157.70;;;55.80;;
57303;SDS011;43150;50.986;18.208;2022-11-20T17:38:06;215.80;;;72.80;;
57303;SDS011;43150;50.986;18.208;2022-11-20T17:47:48;137.30;;;58.80;;
57303;SDS011;43150;50.986;18.208;2022-11-20T17:57:29;48.60;;;29.30;;
57303;SDS011;43150;50.986;18.208;2022-11-20T18:07:34;45.30;;;24.10;;
57303;SDS011;43150;50.986;18.208;2022-11-20T18:17:17;39.20;;;25.10;;
57303;SDS011;43150;50.986;18.208;2022-11-20T18:27:00;38.60;;;21.00;;
57303;SDS011;43150;50.986;18.208;2022-11-20T18:36:42;37.90;;;23.70;;
57303;SDS011;43150;50.986;18.208;2022-11-20T18:47:03;66.60;;;28.40;;
57303;SDS011;43150;50.986;18.208;2022-11-20T18:56:45;61.00;;;27.90;;
57303;SDS011;43150;50.986;18.208;2022-11-20T19:06:26;46.30;;;26.60;;
57303;SDS011;43150;50.986;18.208;2022-11-20T19:23:26;41.50;;;22.20;;
57303;SDS011;43150;50.986;18.208;2022-11-20T19:33:08;35.70;;;20.80;;
57303;SDS011;43150;50.986;18.208;2022-11-20T19:42:51;26.00;;;15.80;;
57303;SDS011;43150;50.986;18.208;2022-11-20T19:52:34;31.80;;;19.30;;
57303;SDS011;43150;50.986;18.208;2022-11-20T20:02:21;51.90;;;25.90;;
57303;SDS011;43150;50.986;18.208;2022-11-20T20:12:05;46.40;;;27.40;;
57303;SDS011;43150;50.986;18.208;2022-11-20T20:21:47;38.00;;;20.60;;
57303;SDS011;43150;50.986;18.208;2022-11-20T20:31:32;41.40;;;21.40;;
57303;SDS011;43150;50.986;18.208;2022-11-20T20:41:17;39.70;;;21.20;;
57303;SDS011;43150;50.986;18.208;2022-11-20T20:51:26;37.10;;;22.60;;
57303;SDS011;43150;50.986;18.208;2022-11-20T21:01:09;36.50;;;18.20;;
57303;SDS011;43150;50.986;18.208;2022-11-20T21:10:53;29.20;;;18.00;;
57303;SDS011;43150;50.986;18.208;2022-11-20T21:20:41;34.10;;;20.30;;
57303;SDS011;43150;50.986;18.208;2022-11-20T21:30:43;33.40;;;20.00;;
57303;SDS011;43150;50.986;18.208;2022-11-20T21:40:29;17.70;;;13.70;;
57303;SDS011;43150;50.986;18.208;2022-11-20T21:50:11;19.20;;;15.70;;
57303;SDS011;43150;50.986;18.208;2022-11-20T21:59:52;30.10;;;18.60;;
57303;SDS011;43150;50.986;18.208;2022-11-20T22:09:36;30.40;;;19.50;;
57303;SDS011;43150;50.986;18.208;2022-11-20T22:19:19;47.30;;;19.40;;
57303;SDS011;43150;50.986;18.208;2022-11-20T22:29:04;48.70;;;25.50;;
57303;SDS011;43150;50.986;18.208;2022-11-20T22:38:46;44.40;;;23.30;;
57303;SDS011;43150;50.986;18.208;2022-11-20T22:48:29;42.70;;;22.10;;
57303;SDS011;43150;50.986;18.208;2022-11-20T22:58:12;53.60;;;25.80;;
57303;SDS011;43150;50.986;18.208;2022-11-20T23:07:54;39.70;;;21.40;;
57303;SDS011;43150;50.986;18.208;2022-11-20T23:17:36;30.20;;;20.00;;
57303;SDS011;43150;50.986;18.208;2022-11-20T23:27:18;81.50;;;39.60;;
57303;SDS011;43150;50.986;18.208;2022-11-20T23:37:04;86.40;;;37.60;;
57303;SDS011;43150;50.986;18.208;2022-11-20T23:46:49;56.10;;;29.60;;
57303;SDS011;43150;50.986;18.208;2022-11-20T23:56:31;102.60;;;40.50;;
